ADDS METAR Data INFO
IDs: Format: Raw Decoded Include TAF

Data at: 1250 UTC 19 Oct 2017

KAVQ 191235Z AUTO 10008KT 10SM CLR 20/01 A2989 RMK AO2 T01950014
KAVQ 191215Z AUTO 10008KT 10SM CLR 20/01 A2989 RMK AO2 T01980014
KAVQ 191155Z AUTO 10009KT 10SM CLR 20/01 A2988 RMK AO2 T02000012
KAVQ 191135Z AUTO 10008KT 10SM CLR 20/01 A2988 RMK AO2 T02030011
KAVQ 191115Z AUTO 11008KT 10SM CLR 20/01 A2988 RMK AO2 T02030012
KAVQ 191055Z AUTO 11005KT 10SM CLR 20/01 A2988 RMK AO2 T02030012
KAVQ 191035Z AUTO 12006KT 10SM CLR 21/01 A2988 RMK AO2 T02070012
KAVQ 191015Z AUTO 10005KT 10SM CLR 21/01 A2988 RMK AO2 T02060011
KAVQ 190955Z AUTO 10008KT 10SM CLR 21/01 A2989 RMK AO2 T02050013
KAVQ 190935Z AUTO 10007KT 10SM CLR 21/02 A2989 RMK AO2 T02050015
KAVQ 190915Z AUTO 11006KT 10SM CLR 21/01 A2990 RMK AO2 T02080014
KAVQ 190855Z AUTO 11005KT 10SM CLR 21/01 A2990 RMK AO2 T02090011
KAVQ 190835Z AUTO 11005KT 10SM CLR 21/01 A2990 RMK AO2 T02060007
KAVQ 190815Z AUTO 11004KT 10SM CLR 21/00 A2991 RMK AO2 T02110000
KAVQ 190755Z AUTO 11007KT 10SM CLR 22/00 A2991 RMK AO2 T02151002
KAVQ 190735Z AUTO 10007KT 10SM CLR 20/00 A2991 RMK AO2 T02010000
KAVQ 190715Z AUTO 09005KT 10SM CLR 20/00 A2991 RMK AO2 T02010000
KAVQ 190655Z AUTO 10006KT 10SM CLR 21/00 A2991 RMK AO2 T02071002
KAVQ 190635Z AUTO 14003KT 10SM CLR 22/00 A2992 RMK AO2 T02171001
KAVQ 190615Z AUTO 15004KT 10SM CLR 22/00 A2992 RMK AO2 T02170002
KAVQ 190555Z AUTO 20003KT 10SM CLR 22/00 A2992 RMK AO2 T02160000
KAVQ 190535Z AUTO 00000KT 10SM CLR 22/00 A2992 RMK AO2 T02150001
KAVQ 190515Z AUTO 21004KT 10SM CLR 22/00 A2992 RMK AO2 T02180000
KAVQ 190455Z AUTO 20004KT 10SM CLR 22/01 A2992 RMK AO2 T02180006
KAVQ 190435Z AUTO 24004KT 10SM CLR 22/01 A2992 RMK AO2 T02240006
KAVQ 190415Z AUTO 00000KT 10SM CLR 23/01 A2991 RMK AO2 T02300005
KAVQ 190355Z AUTO 00000KT 10SM CLR 24/00 A2991 RMK AO2 T02400001
KAVQ 190335Z AUTO 00000KT 10SM CLR 24/00 A2991 RMK AO2 T02430001
KAVQ 190315Z AUTO 00000KT 10SM CLR 25/M01 A2991 RMK AO2 T02511007
KAVQ 190255Z AUTO 03003KT 10SM CLR 26/M01 A2991 RMK AO2 T02611006
KAVQ 190235Z AUTO 01004KT 10SM CLR 26/00 A2991 RMK AO2 T02631002
KAVQ 190215Z AUTO 02003KT 10SM CLR 27/M01 A2991 RMK AO2 T02671006
KAVQ 190155Z AUTO 34006KT 10SM CLR 27/00 A2991 RMK AO2 T02701005
KAVQ 190135Z AUTO 35004KT 10SM 28/00 A2990 RMK AO2 T02761004
KAVQ 190115Z AUTO 34004KT 10SM CLR 28/00 A2990 RMK AO2 T02841003
KAVQ 190055Z AUTO 33004KT 10SM CLR 30/00 A2990 RMK AO2 T02971001
KAVQ 190035Z AUTO 33005KT 10SM CLR 31/00 A2990 RMK AO2 T03110001
KAVQ 190015Z AUTO 31007KT 10SM CLR 32/00 A2990 RMK AO2 T03240000
KAVQ 182355Z AUTO 34005KT 33/00 A2990 RMK AO2 T03310000
KAVQ 182335Z AUTO 33007KT 10SM CLR 33/00 A2990 RMK AO2 T03340000
KAVQ 182315Z AUTO 33009KT 10SM 34/00 A2991 RMK AO2 T03380001
KAVQ 182255Z AUTO 32009KT 10SM CLR 33/00 A2991 RMK AO2 T03320002
KAVQ 182235Z AUTO 31010KT 10SM CLR 33/00 A2992 RMK AO2 T03330004
KAVQ 182215Z AUTO 32008KT 34/01 A2992 RMK AO2 T03380008
KAVQ 182155Z AUTO 30010KT 10SM CLR 34/01 A2992 RMK AO2 T03400006
KAVQ 182135Z AUTO 32010KT 10SM 34/00 A2992 RMK AO2 T03400004
KAVQ 182115Z AUTO 30009G15KT 10SM CLR 34/01 A2993 RMK AO2 T03440009
KAVQ 182055Z AUTO 32010G14KT 10SM CLR 34/01 A2993 RMK AO2 T03420007
KAVQ 182035Z AUTO 33007KT 34/01 A2994 RMK AO2 T03410006
KAVQ 182015Z AUTO 31008KT 10SM CLR 34/00 A2995 RMK AO2 T03390002
KAVQ 181955Z AUTO 31007KT 10SM CLR 33/00 A2996 RMK AO2 T03330003
KAVQ 181935Z AUTO 30006KT 33/01 A2997 RMK AO2 T03300008
KAVQ 181915Z AUTO 29004KT 10SM CLR 33/01 A2998 RMK AO2 T03250014
KAVQ 181855Z AUTO 30003KT 10SM CLR 32/01 A2999 RMK AO2 T03200011
KAVQ 181835Z AUTO 32/02 RMK AO2 T03150018
KAVQ 181815Z AUTO 00000KT 10SM CLR 31/02 A3000 RMK AO2 T03060019
KAVQ 181755Z AUTO 00000KT 10SM CLR 30/03 A3001 RMK AO2 T02980029
KAVQ 181735Z AUTO 19003KT 10SM CLR 29/03 A3002 RMK AO2 T02900033
KAVQ 181715Z AUTO 00000KT 10SM CLR 28/03 A3002 RMK AO2 T02840029
KAVQ 181655Z AUTO 00000KT 10SM CLR 28/03 A3002 RMK AO2 T02770028
KAVQ 181635Z AUTO 00000KT 10SM CLR 27/03 A3002 RMK AO2 T02700031
KAVQ 181615Z AUTO 00000KT 10SM CLR 26/03 A3002 RMK AO2 T02600033
KAVQ 181555Z AUTO 00000KT 10SM CLR 25/03 A3002 RMK AO2 T02510034
KAVQ 181535Z AUTO 10005KT 10SM CLR 24/03 A3002 RMK AO2 T02400033
KAVQ 181515Z AUTO 11007KT 10SM CLR 23/03 A3001 RMK AO2 T02280033
KAVQ 181455Z AUTO 11005KT 10SM CLR 22/03 A3001 RMK AO2 T02230033
KAVQ 181435Z AUTO 11007KT 10SM CLR 21/03 A3000 RMK AO2 T02080032
KAVQ 181415Z AUTO 11005KT 10SM CLR 19/04 A2999 RMK AO2 T01920035
KAVQ 181355Z AUTO 14004KT 10SM CLR 20/04 A2999 RMK AO2 T01950037
KAVQ 181335Z AUTO 11006KT 10SM CLR 20/04 A2999 RMK AO2 T01990035
KAVQ 181315Z AUTO 11005KT 10SM CLR 20/04 A2998 RMK AO2 T01990036
KAVQ 181255Z AUTO 12003KT 10SM CLR 20/04 A2998 RMK AO2 T01980038
KAVQ 181235Z AUTO 11005KT 10SM CLR 19/04 A2997 RMK AO2 T01940035
KAVQ 181215Z AUTO 00000KT 10SM CLR 19/03 A2997 RMK AO2 T01940032
KAVQ 181155Z AUTO 00000KT 10SM CLR 20/03 A2997 RMK AO2 T01960025
KAVQ 181135Z AUTO 00000KT 10SM CLR 20/03 A2996 RMK AO2 T01950027
KAVQ 181115Z AUTO 00000KT 10SM CLR 20/03 A2996 RMK AO2 T02000028
KAVQ 181055Z AUTO 00000KT 10SM CLR 20/03 A2996 RMK AO2 T02030029
KAVQ 181035Z AUTO 00000KT 10SM CLR 20/03 A2996 RMK AO2 T02000031
KAVQ 181015Z AUTO 10003KT 10SM CLR 20/03 A2996 RMK AO2 T01980031
KAVQ 180955Z AUTO 08003KT 10SM CLR 20/03 A2997 RMK AO2 T02000033
KAVQ 180935Z AUTO 08004KT 10SM CLR 20/03 A2997 RMK AO2 T02000031
KAVQ 180915Z AUTO 10003KT 10SM CLR 20/03 A2998 RMK AO2 T02020032
KAVQ 180855Z AUTO 08005KT 10SM CLR 20/04 A2998 RMK AO2 T02010037
KAVQ 180835Z AUTO 00000KT 10SM SCT120 21/04 A2998 RMK AO2 T02140035
KAVQ 180815Z AUTO 00000KT 10SM SCT120 21/04 A2998 RMK AO2 T02110040
KAVQ 180755Z AUTO 00000KT 10SM CLR 21/04 A2998 RMK AO2 T02070039
KAVQ 180735Z AUTO 00000KT 10SM CLR 22/04 A2998 RMK AO2 T02190036
KAVQ 180715Z AUTO 00000KT 10SM CLR 23/03 A2998 RMK AO2 T02290033
KAVQ 180655Z AUTO 19003KT 10SM CLR 23/03 A2999 RMK AO2 T02280034
KAVQ 180635Z AUTO 17003KT 10SM CLR 23/04 A2999 RMK AO2 T02340038
KAVQ 180615Z AUTO 20004KT 10SM CLR 23/04 A2999 RMK AO2 T02340038
KAVQ 180555Z AUTO 00000KT 10SM CLR 24/04 A2999 RMK AO2 T02350038
KAVQ 180535Z AUTO 00000KT 10SM CLR 24/05 A2999 RMK AO2 T02360046
KAVQ 180515Z AUTO 00000KT 10SM CLR 24/05 A2999 RMK AO2 T02390047
KAVQ 180455Z AUTO 00000KT 10SM CLR 25/05 A2999 RMK AO2 T02470045
KAVQ 180435Z AUTO 00000KT 10SM CLR 25/05 A2999 RMK AO2 T02490045
KAVQ 180415Z AUTO 00000KT 10SM CLR 25/05 A2999 RMK AO2 T02500050
KAVQ 180355Z AUTO 00000KT 10SM CLR 25/06 A2999 RMK AO2 T02530055
KAVQ 180335Z AUTO 00000KT 10SM CLR 26/05 A2998 RMK AO2 T02560053
KAVQ 180315Z AUTO 00000KT 10SM CLR 27/05 A2998 RMK AO2 T02650047
KAVQ 180255Z AUTO 00000KT 10SM CLR 27/04 A2997 RMK AO2 T02690044
KAVQ 180235Z AUTO 00000KT 10SM CLR 27/05 A2997 RMK AO2 T02690045
KAVQ 180215Z AUTO 35003KT 10SM CLR 27/05 A2997 RMK AO2 T02710046
KAVQ 180155Z AUTO 32005KT 10SM CLR 28/05 A2996 RMK AO2 T02750049
KAVQ 180135Z AUTO 33004KT 10SM CLR 28/05 A2996 RMK AO2 T02820050
KAVQ 180115Z AUTO 32005KT 10SM CLR 29/05 A2996 RMK AO2 T02910050
KAVQ 180055Z AUTO 32006KT 10SM CLR 30/05 A2996 RMK AO2 T02980048